Terminal Aerodrome Forecast
Issued by NWS Chicago, IL

Home | Current Version | Previous Version | Graphics & Text | Print | Product List | Glossary On
Versions: 1 2 3 4 5 6 7 8 9 10 11 12 13 14 15 16 17 18 19 20 21 22 23 24 25 26 27 28 29 30 31
000
FTUS43 KLOT 260500
TAFRFD
TAF
KRFD 260531Z 2606/2706 17007KT P6SM OVC025
      TEMPO 2610/2613 OVC015
     FM261500 22007KT P6SM BKN035
     FM261800 26008KT P6SM SCT035 BKN100
     FM270100 VRB03KT 6SM BR BKN120=

USA.gov is the U.S. government's official web portal to all federal, state and local government web resources and services.